Upernavik

KL  EN  DA
ASIAQ
Weather Now GREENLAND SURVEY
Updated [WGT/WGST] Temperature [°C] Wind [m/s] Air pressure [hPa] Relative humidity [%] Precipitation [mm]
Present Wind chill Speed Max
24.09 03:00n/an/a3,7 ⇖4,41005n/an/a
24.09 02:00-2,7-6,22,5 ⇖3,41006930,0
24.09 01:00-2,4-4,41,4 ⇖2,21006860,0
24.09 00:00-2,3-4,91,8 ⇐3,61007900,0
23.09 23:00-2,5-5,82,3 ⇐3,71007920,0
23.09 22:00-2,0-8,77,4 ⇑9,31007780,0
23.09 21:00-2,0-9,39,1 ⇑11,71007790,0
23.09 20:00-2,0-8,97,9 ⇑11,81007790,0
23.09 19:00-2,2-9,58,9 ⇗11,61007860,0
23.09 18:00-2,5-10,610,7 ⇗13,21006930,0
23.09 17:00-2,6-10,49,6 ⇗12,31006970,6
23.09 16:00-2,5-10,310,0 ⇗12,41006980,5
23.09 15:00-2,3-10,19,8 ⇗11,91006980,6
23.09 14:00-2,0-10,211,6 ⇗14,81005981,1
23.09 13:00-2,0-9,810,4 ⇗12,41006980,5
23.09 12:00-2,0-9,28,5 ⇗11,51005980,5
23.09 11:00-1,6-8,88,8 ⇗11,81005970,2
23.09 10:00-1,4-7,87,3 ⇗9,41005930,0
23.09 09:00-1,5-4,22,0 ⇐3,11005860,0
23.09 08:00-1,5-5,73,4 ⇙4,51004850,0
23.09 07:00-1,6-6,34,1 ⇖4,71004850,0
23.09 06:00-2,1-7,14,4 ⇙5,21004840,0
23.09 05:00-1,9-5,93,2 ⇐4,01003790,0
23.09 04:00-2,1-6,53,6 ⇐4,21003800,0
23.09 03:00-2,4-7,54,5 ⇐5,31003840,0
Position: (72.783333333,-56.133333333)

[Back]